METAR-berichten van nabijgelegen luchthavens

 

EHBK - Maastricht-Aachen Airport
Afstand tot station: WZW 9km
Bijgewerkt: 22-09-2018 08:55
Gedeeltelijk bewolkt
Gedeeltelijk bewolkt
 Wind vanuit ZW
Wind: ZW 19 km/h
Temperatuur: 11°C
Dauwpunt: 8°C
Vochtigheid: 82%
Luchtdruk: 1020 hPa
Bewolking: Gedeeltelijk bewolkt
Zicht: 10 km
2018/09/22 06:55 EHBK 220655Z AUTO 22010KT 9999 NSC 11/08 Q1020 NOSIG
ETNG - NATO Air Base Geilenkirchen
Afstand tot station: ONO 11km
Bijgewerkt: 21-09-2018 17:50
NIET actueel
Gedeeltelijk bewolkt
Gedeeltelijk bewolkt
 Wind vanuit WZW
Wind: WZW 35 km/h, Windvlaag: 56 km/h
Temperatuur: 17°C
Dauwpunt: 4°C
Vochtigheid: 42%
Luchtdruk: 1012 hPa
Bewolking: Gedeeltelijk bewolkt
Zicht: 10 km
Details bewolking: Gedeeltelijk bewolkt 1372 m
2018/09/21 15:50 ETNG 211550Z 25019G30KT 9999 SCT045 17/04 Q1012 NOSIG